Terminal Aerodrome Forecast
Issued by NWS North Platte, NE

Home | Current Version | Previous Version | Text Only | Print | Product List | Glossary On
Versions: 1 2 3 4 5 6 7 8 9 10 11 12 13 14 15 16 17 18 19 20
000
FTUS43 KLBF 181500 AAB
TAFVTN
TAF AMD
KVTN 181530Z 1816/1912 05010KT P6SM OVC006
     FM181630 07007KT P6SM BKN035 OVC050
     FM190400 34007KT P6SM OVC015
     FM190600 34014G20KT P6SM OVC015=

USA.gov is the U.S. government's official web portal to all federal, state and local government web resources and services.